| time (UTC) | temp C | wind direction | speed KPH | gust KPH | rain 1hr cm | rain 24hr cm | rain mn cm | humidity % | barometer mb |
| 20260906224608 | 28 | 324 | 16.1 | 25.7 | 0.00 | 0.00 | 0.00 | 12 | 1015.7 |
| 20260906223118 | 29 | 347 | 6.4 | 19.3 | 0.00 | 0.00 | 0.00 | 9 | 1015.8 |
| 20260906221605 | 30 | 222 | 6.4 | 19.3 | 0.00 | 0.00 | 0.00 | 9 | 1015.7 |
| 20260906220106 | 29 | 296 | 16.1 | 25.7 | 0.00 | 0.00 | 0.00 | 11 | 1015.8 |
| 20260906214603 | 28 | 5 | 3.2 | 12.9 | 0.00 | 0.00 | 0.00 | 14 | 1016.0 |
| 20260906213106 | 28 | 351 | 4.8 | 12.9 | 0.00 | 0.00 | 0.00 | 12 | 1016.3 |
| 20260906211604 | 28 | 0 | 4.8 | 17.7 | 0.00 | 0.00 | 0.00 | 11 | 1016.4 |
| 20260906210116 | 28 | 229 | 6.4 | 12.9 | 0.00 | 0.00 | 0.00 | 12 | 1016.7 |
| 20260906204615 | 30 | 37 | 1.6 | 16.1 | 0.00 | 0.00 | 0.00 | 10 | 1016.8 |
| 20260906203104 | 28 | 131 | 6.4 | 17.7 | 0.00 | 0.00 | 0.00 | 11 | 1016.9 |
| 20260906201603 | 27 | 30 | 4.8 | 12.9 | 0.00 | 0.00 | 0.00 | 14 | 1017.2 |
| 20260906200104 | 27 | 304 | 6.4 | 19.3 | 0.00 | 0.00 | 0.00 | 14 | 1017.5 |
| 20260906194609 | 28 | 169 | 4.8 | 17.7 | 0.00 | 0.00 | 0.00 | 11 | 1017.6 |
| 20260906193102 | 28 | 261 | 6.4 | 17.7 | 0.00 | 0.00 | 0.00 | 14 | 1017.8 |
| 20260906191605 | 27 | 223 | 6.4 | 16.1 | 0.00 | 0.00 | 0.00 | 11 | 1018.0 |
| 20260906190103 | 27 | 242 | 3.2 | 14.5 | 0.00 | 0.00 | 0.00 | 13 | 1018.2 |
| 20260906184609 | 26 | 123 | 6.4 | 14.5 | 0.00 | 0.00 | 0.00 | 12 | 1018.6 |
| 20260906183105 | 26 | 99 | 1.6 | 8.0 | 0.00 | 0.00 | 0.00 | 12 | 1018.9 |
| 20260906181604 | 26 | 153 | 3.2 | 8.0 | 0.00 | 0.00 | 0.00 | 14 | 1019.2 |
| 20260906180105 | 25 | 65 | 1.6 | 8.0 | 0.00 | 0.00 | 0.00 | 14 | 1019.6 |
| 20260906174602 | 25 | 60 | 1.6 | 6.4 | 0.00 | 0.00 | 0.00 | 19 | 1019.9 |
| 20260906173108 | 23 | 60 | 1.6 | 9.7 | 0.00 | 0.00 | 0.00 | 25 | 1020.3 |
| 20260906171604 | 21 | 352 | 3.2 | 9.7 | 0.00 | 0.00 | 0.00 | 29 | 1020.7 |
| 20260906170106 | 20 | 298 | 3.2 | 8.0 | 0.00 | 0.00 | 0.00 | 29 | 1020.9 |
| 20260906164623 | 18 | 51 | 4.8 | 11.3 | 0.00 | 0.00 | 0.00 | 33 | 1021.2 |
| 20260906163114 | 17 | 69 | 4.8 | 12.9 | 0.00 | 0.00 | 0.00 | 39 | 1021.3 |
| 20260906161605 | 16 | 73 | 3.2 | 8.0 | 0.00 | 0.00 | 0.00 | 44 | 1021.7 |
| 20260906160101 | 13 | 45 | 4.8 | 9.7 | 0.00 | 0.00 | 0.00 | 53 | 1021.8 |
| 20260906154602 | 11 | 57 | 1.6 | 6.4 | 0.00 | 0.00 | 0.00 | 59 | 1021.9 |
| 20260906153104 | 11 | 106 | 3.2 | 6.4 | 0.00 | 0.00 | 0.00 | 61 | 1022.0 |
| 20260906151609 | 10 | 124 | 3.2 | 8.0 | 0.00 | 0.00 | 0.00 | 60 | 1022.0 |
| 20260906144619 | 8 | 134 | 3.2 | 4.8 | 0.00 | 0.00 | 0.00 | 66 | 1022.1 |
| 20260906143116 | 7 | 0 | 0.0 | 0.0 | 0.00 | 0.00 | 0.00 | 71 | 1022.1 |
| 20260906141605 | 7 | 0 | 0.0 | 0.0 | 0.00 | 0.00 | 0.00 | 74 | 1022.1 |
| 20260906134601 | 6 | 0 | 0.0 | 0.0 | 0.00 | 0.00 | 0.00 | 75 | 1022.2 |
| 20260906133109 | 5 | 0 | 0.0 | 0.0 | 0.00 | 0.00 | 0.00 | 75 | 1021.9 |
| 20260906131610 | 5 | 0 | 0.0 | 0.0 | 0.00 | 0.00 | 0.00 | 74 | 1021.7 |
| 20260906130103 | 5 | 0 | 0.0 | 0.0 | 0.00 | 0.00 | 0.00 | 73 | 1021.7 |
| 20260906124605 | 6 | 0 | 0.0 | 0.0 | 0.00 | 0.00 | 0.00 | 75 | 1021.6 |
| 20260906123106 | 6 | 0 | 0.0 | 0.0 | 0.00 | 0.00 | 0.00 | 74 | 1021.4 |
| 20260906121602 | 5 | 0 | 0.0 | 0.0 | 0.00 | 0.00 | 0.00 | 74 | 1021.5 |
| 20260906120113 | 5 | 0 | 0.0 | 0.0 | 0.00 | 0.00 | 0.00 | 74 | 1021.3 |
| 20260906114601 | 5 | 0 | 0.0 | 0.0 | 0.00 | 0.00 | 0.00 | 71 | 1021.5 |
| 20260906113103 | 5 | 0 | 0.0 | 0.0 | 0.00 | 0.00 | 0.00 | 72 | 1021.2 |
| 20260906111600 | 5 | 0 | 0.0 | 0.0 | 0.00 | 0.00 | 0.00 | 71 | 1021.2 |
| 20260906110103 | 5 | 0 | 0.0 | 0.0 | 0.00 | 0.00 | 0.00 | 69 | 1021.3 |
| 20260906104600 | 6 | 0 | 0.0 | 0.0 | 0.00 | 0.00 | 0.00 | 69 | 1020.9 |
| 20260906103105 | 6 | 0 | 0.0 | 0.0 | 0.00 | 0.00 | 0.00 | 70 | 1021.1 |
| 20260906101604 | 6 | 0 | 0.0 | 0.0 | 0.00 | 0.00 | 0.00 | 70 | 1021.0 |
| 20260906100105 | 6 | 0 | 0.0 | 0.0 | 0.00 | 0.00 | 0.00 | 67 | 1020.9 |
| 20260906094606 | 6 | 0 | 0.0 | 0.0 | 0.00 | 0.00 | 0.00 | 66 | 1020.7 |
| 20260906093117 | 6 | 0 | 0.0 | 0.0 | 0.00 | 0.00 | 0.00 | 67 | 1020.9 |
| 20260906091605 | 6 | 0 | 0.0 | 0.0 | 0.00 | 0.00 | 0.00 | 66 | 1020.7 |
| 20260906090124 | 7 | 0 | 0.0 | 0.0 | 0.00 | 0.00 | 0.00 | 66 | 1020.8 |
| 20260906084601 | 7 | 0 | 0.0 | 0.0 | 0.00 | 0.00 | 0.00 | 66 | 1020.7 |
| 20260906083103 | 7 | 0 | 0.0 | 0.0 | 0.00 | 0.00 | 0.00 | 65 | 1020.5 |
| 20260906081604 | 8 | 0 | 0.0 | 0.0 | 0.00 | 0.00 | 0.00 | 65 | 1020.6 |
| 20260906080103 | 8 | 0 | 0.0 | 0.0 | 0.00 | 0.00 | 0.00 | 64 | 1020.6 |
| 20260906074606 | 8 | 0 | 0.0 | 0.0 | 0.00 | 0.00 | 0.00 | 65 | 1020.7 |
| 20260906073105 | 8 | 335 | 1.6 | 3.2 | 0.00 | 0.00 | 0.00 | 64 | 1020.7 |
| 20260906071610 | 8 | 334 | 1.6 | 4.8 | 0.00 | 0.00 | 0.00 | 64 | 1020.5 |
| 20260906070110 | 8 | 0 | 0.0 | 3.2 | 0.00 | 0.00 | 0.00 | 64 | 1020.6 |
| 20260906064601 | 9 | 334 | 0.0 | 4.8 | 0.00 | 0.00 | 0.00 | 65 | 1020.5 |
| 20260906063103 | 8 | 335 | 1.6 | 6.4 | 0.00 | 0.00 | 0.00 | 65 | 1020.4 |
| 20260906061602 | 8 | 335 | 3.2 | 4.8 | 0.00 | 0.00 | 0.00 | 65 | 1020.5 |
| 20260906060106 | 8 | 335 | 0.0 | 1.6 | 0.00 | 0.00 | 0.00 | 65 | 1020.3 |
| 20260906054600 | 8 | 0 | 0.0 | 1.6 | 0.00 | 0.00 | 0.00 | 65 | 1020.2 |
| 20260906053102 | 9 | 334 | 3.2 | 6.4 | 0.00 | 0.00 | 0.00 | 66 | 1020.3 |
| 20260906051606 | 10 | 0 | 0.0 | 3.2 | 0.00 | 0.00 | 0.00 | 66 | 1020.0 |
| 20260906050133 | 9 | 0 | 0.0 | 1.6 | 0.00 | 0.00 | 0.00 | 65 | 1020.1 |
| 20260906044600 | 9 | 0 | 1.6 | 4.8 | 0.00 | 0.00 | 0.00 | 63 | 1020.0 |
| 20260906043109 | 10 | 0 | 0.0 | 0.0 | 0.00 | 0.00 | 0.00 | 61 | 1019.9 |
| 20260906041604 | 10 | 0 | 0.0 | 3.2 | 0.00 | 0.00 | 0.00 | 62 | 1019.8 |
| 20260906040104 | 11 | 333 | 0.0 | 3.2 | 0.00 | 0.00 | 0.00 | 62 | 1019.7 |
| 20260906034601 | 12 | 333 | 1.6 | 4.8 | 0.00 | 0.00 | 0.00 | 60 | 1019.6 |
| 20260906033101 | 12 | 0 | 0.0 | 0.0 | 0.00 | 0.00 | 0.00 | 58 | 1019.4 |
| 20260906031601 | 12 | 0 | 0.0 | 4.8 | 0.00 | 0.00 | 0.00 | 56 | 1019.4 |
| 20260906030132 | 13 | 0 | 0.0 | 3.2 | 0.00 | 0.00 | 0.00 | 54 | 1018.9 |
| 20260906024603 | 14 | 0 | 0.0 | 4.8 | 0.00 | 0.00 | 0.00 | 52 | 1018.8 |
| 20260906023126 | 15 | 0 | 0.0 | 3.2 | 0.00 | 0.00 | 0.00 | 49 | 1018.6 |
| 20260906021614 | 16 | 333 | 0.0 | 1.6 | 0.00 | 0.00 | 0.00 | 47 | 1018.3 |
| 20260906020107 | 17 | 0 | 0.0 | 4.8 | 0.00 | 0.00 | 0.00 | 43 | 1018.2 |
| 20260906014621 | 20 | 0 | 1.6 | 4.8 | 0.00 | 0.00 | 0.00 | 38 | 1018.0 |
| 20260906013102 | 22 | 333 | 1.6 | 3.2 | 0.00 | 0.00 | 0.00 | 29 | 1018.0 |
| 20260906011607 | 25 | 0 | 0.0 | 4.8 | 0.00 | 0.00 | 0.00 | 22 | 1018.0 |
| 20260906010104 | 26 | 332 | 4.8 | 12.9 | 0.00 | 0.00 | 0.00 | 15 | 1017.9 |
| 20260906004628 | 27 | 325 | 6.4 | 12.9 | 0.00 | 0.00 | 0.00 | 14 | 1017.9 |
| 20260906003109 | 27 | 324 | 3.2 | 8.0 | 0.00 | 0.00 | 0.00 | 14 | 1018.0 |
| 20260906001604 | 28 | 329 | 6.4 | 14.5 | 0.00 | 0.00 | 0.00 | 16 | 1017.8 |
| 20260905234618 | 28 | 0 | 1.6 | 11.3 | 0.00 | 0.00 | 0.00 | 10 | 1017.8 |
| 20260905233059 | 28 | 244 | 1.6 | 6.4 | 0.00 | 0.00 | 0.00 | 12 | 1017.8 |
| 20260905231603 | 28 | 244 | 3.2 | 12.9 | 0.00 | 0.00 | 0.00 | 11 | 1017.8 |
| 20260905230106 | 28 | 337 | 1.6 | 6.4 | 0.00 | 0.00 | 0.00 | 12 | 1017.8 |